Time;durP1;ratioP1;P1;durP2;ratioP2;P2;SDS_P1;SDS_P2;PMS_P1;PMS_P2;Temp;Humidity;BMP_temperature;BMP_pressure;BME280_temperature;BME280_humidity;BME280_pressure;Samples;Min_cycle;Max_cycle;Signal;HPM_P1;HPM_P2
2021/01/12 00:02:23;;;;;;;24.17;4.53;;;;;;;;;;5022420;28;20225;-75
2021/01/12 00:04:49;;;;;;;31.52;3.88;;;;;;;;;;5024158;28;20021;-73
2021/01/12 00:07:19;;;;;;;25.92;4.47;;;;;;;;;;5025298;28;20050;-74
2021/01/12 00:09:45;;;;;;;25.92;4.22;;;;;;;;;;5026159;28;20029;-74
2021/01/12 00:12:11;;;;;;;22.25;5.05;;;;;;;;;;5020837;28;20309;-73
2021/01/12 00:14:37;;;;;;;36.50;5.75;;;;;;;;;;5027705;28;20017;-74
2021/01/12 00:17:07;;;;;;;23.63;4.72;;;;;;;;;;5025969;28;20528;-77
2021/01/12 00:19:34;;;;;;;41.45;6.25;;;;;;;;;;5029263;28;20017;-74
2021/01/12 00:22:00;;;;;;;27.10;3.63;;;;;;;;;;5025843;28;20343;-76
2021/01/12 00:24:27;;;;;;;42.60;5.30;;;;;;;;;;5030349;28;20033;-76
2021/01/12 00:26:53;;;;;;;19.00;3.60;;;;;;;;;;5025247;28;20490;-77
2021/01/12 00:29:20;;;;;;;27.38;4.70;;;;;;;;;;5028849;28;20037;-74
2021/01/12 00:31:46;;;;;;;23.80;4.22;;;;;;;;;;5028274;28;20033;-74
2021/01/12 00:34:13;;;;;;;40.38;6.30;;;;;;;;;;5024745;28;20033;-74
2021/01/12 00:36:43;;;;;;;38.25;6.72;;;;;;;;;;5028153;28;20083;-76
2021/01/12 00:39:09;;;;;;;38.10;5.65;;;;;;;;;;5026464;28;20043;-74
2021/01/12 00:41:35;;;;;;;25.25;4.93;;;;;;;;;;5029146;28;20021;-77
2021/01/12 00:44:02;;;;;;;55.17;6.28;;;;;;;;;;5026132;28;20021;-77
2021/01/12 00:46:28;;;;;;;24.13;4.00;;;;;;;;;;5028234;28;20034;-74
2021/01/12 00:48:54;;;;;;;18.27;4.85;;;;;;;;;;5029074;28;20037;-79
2021/01/12 00:51:20;;;;;;;21.20;5.22;;;;;;;;;;5031930;28;20561;-76
2021/01/12 00:53:46;;;;;;;43.30;7.03;;;;;;;;;;5029676;28;20508;-76
2021/01/12 00:56:15;;;;;;;12.80;2.35;;;;;;;;;;5033570;28;20127;-77
2021/01/12 00:58:41;;;;;;;41.72;6.75;;;;;;;;;;5033397;28;20025;-76
2021/01/12 01:01:07;;;;;;;39.97;7.15;;;;;;;;;;5032517;28;20029;-74
2021/01/12 01:03:33;;;;;;;28.42;5.30;;;;;;;;;;5028459;28;20021;-75
2021/01/12 01:06:05;;;;;;;28.63;5.22;;;;;;;;;;5030318;28;20486;-74
2021/01/12 01:08:31;;;;;;;34.53;4.95;;;;;;;;;;5032721;28;20049;-74
2021/01/12 01:10:57;;;;;;;32.30;5.22;;;;;;;;;;5032016;28;20029;-75
2021/01/12 01:13:26;;;;;;;27.10;4.82;;;;;;;;;;5029663;28;20057;-76
2021/01/12 01:15:52;;;;;;;42.42;6.13;;;;;;;;;;5030320;28;20044;-74
2021/01/12 01:18:18;;;;;;;30.70;6.32;;;;;;;;;;5029911;28;20033;-75
2021/01/12 01:20:44;;;;;;;32.97;5.65;;;;;;;;;;5033182;28;20076;-75
2021/01/12 01:23:10;;;;;;;33.75;4.88;;;;;;;;;;5029895;28;20259;-74
2021/01/12 01:25:36;;;;;;;40.83;7.82;;;;;;;;;;5030941;28;20170;-75
2021/01/12 01:28:02;;;;;;;34.80;6.28;;;;;;;;;;5031112;28;20551;-76
2021/01/12 01:30:28;;;;;;;35.15;5.45;;;;;;;;;;5032469;28;21789;-75
2021/01/12 01:32:58;;;;;;;40.30;6.53;;;;;;;;;;5028012;28;20029;-75
2021/01/12 01:35:24;;;;;;;40.58;6.43;;;;;;;;;;5032103;28;20032;-75
2021/01/12 01:37:50;;;;;;;44.65;6.82;;;;;;;;;;5031696;28;20034;-76
2021/01/12 01:40:16;;;;;;;30.13;6.68;;;;;;;;;;5032421;28;20025;-77
2021/01/12 01:42:42;;;;;;;25.88;6.43;;;;;;;;;;5027508;28;20199;-75
2021/01/12 01:45:09;;;;;;;26.75;5.68;;;;;;;;;;5028872;28;20025;-76
2021/01/12 01:47:35;;;;;;;45.38;6.07;;;;;;;;;;5030349;28;20159;-75
2021/01/12 01:50:01;;;;;;;27.83;5.63;;;;;;;;;;5030271;28;20017;-74
2021/01/12 01:52:28;;;;;;;50.47;7.07;;;;;;;;;;5028370;28;20049;-77
2021/01/12 01:54:57;;;;;;;30.92;7.57;;;;;;;;;;5032153;28;20076;-74
2021/01/12 01:57:23;;;;;;;29.75;4.10;;;;;;;;;;5030924;28;20036;-75
2021/01/12 01:59:51;;;;;;;36.88;7.38;;;;;;;;;;5030566;28;20025;-74
2021/01/12 02:02:17;;;;;;;27.90;4.20;;;;;;;;;;5023038;28;20225;-75
2021/01/12 02:04:44;;;;;;;46.38;7.97;;;;;;;;;;5029332;28;20155;-77
2021/01/12 02:07:13;;;;;;;35.17;7.22;;;;;;;;;;5025045;28;20141;-73
2021/01/12 02:09:39;;;;;;;40.67;5.78;;;;;;;;;;5029979;28;20033;-74
2021/01/12 02:12:08;;;;;;;25.92;4.80;;;;;;;;;;5027667;28;20037;-75
2021/01/12 02:14:37;;;;;;;25.08;5.72;;;;;;;;;;5030729;28;20025;-76
2021/01/12 02:17:04;;;;;;;50.17;6.68;;;;;;;;;;5030554;28;20026;-75
2021/01/12 02:19:30;;;;;;;39.63;7.90;;;;;;;;;;5029728;28;20544;-77
2021/01/12 02:21:59;;;;;;;39.42;6.32;;;;;;;;;;5028277;28;20017;-76
2021/01/12 02:24:25;;;;;;;21.40;5.10;;;;;;;;;;5029703;28;20037;-75
2021/01/12 02:26:51;;;;;;;33.72;6.32;;;;;;;;;;5030157;28;20021;-76
2021/01/12 02:29:17;;;;;;;29.80;3.55;;;;;;;;;;5029771;28;20033;-76
2021/01/12 02:31:43;;;;;;;43.03;7.32;;;;;;;;;;5028239;28;20040;-75
2021/01/12 02:34:12;;;;;;;22.42;4.90;;;;;;;;;;5029197;28;20017;-76
2021/01/12 02:36:38;;;;;;;27.20;4.60;;;;;;;;;;5030268;28;20501;-76
2021/01/12 02:39:04;;;;;;;27.83;4.82;;;;;;;;;;5028950;28;20508;-74
2021/01/12 02:41:32;;;;;;;42.28;5.93;;;;;;;;;;5028763;28;20095;-75
2021/01/12 02:43:58;;;;;;;27.25;6.13;;;;;;;;;;5023079;28;20038;-74
2021/01/12 02:46:24;;;;;;;17.00;3.40;;;;;;;;;;5028557;28;20033;-76
2021/01/12 02:48:50;;;;;;;35.60;5.32;;;;;;;;;;5029908;28;20077;-75
2021/01/12 02:51:16;;;;;;;34.80;5.47;;;;;;;;;;5027275;28;20041;-76
2021/01/12 02:53:42;;;;;;;33.42;7.57;;;;;;;;;;5026362;28;20115;-74
2021/01/12 02:56:08;;;;;;;33.28;6.65;;;;;;;;;;5030169;28;20513;-76
2021/01/12 02:58:34;;;;;;;37.47;8.38;;;;;;;;;;5030256;28;20065;-73
2021/01/12 03:01:00;;;;;;;35.50;6.13;;;;;;;;;;5029915;28;20049;-74
2021/01/12 03:03:27;;;;;;;29.48;5.28;;;;;;;;;;5026942;28;20084;-74
2021/01/12 03:05:53;;;;;;;39.05;8.95;;;;;;;;;;5028761;28;20021;-73
2021/01/12 03:08:20;;;;;;;30.83;5.47;;;;;;;;;;5029009;28;20040;-73
2021/01/12 03:10:46;;;;;;;30.25;4.65;;;;;;;;;;5029891;28;20113;-73
2021/01/12 03:13:12;;;;;;;25.17;4.95;;;;;;;;;;5022586;28;20026;-75
2021/01/12 03:15:38;;;;;;;29.23;5.57;;;;;;;;;;5029881;28;20037;-76
2021/01/12 03:18:08;;;;;;;34.90;5.60;;;;;;;;;;5028711;28;20029;-75
2021/01/12 03:20:34;;;;;;;44.15;7.47;;;;;;;;;;5028018;28;20022;-73
2021/01/12 03:23:00;;;;;;;34.08;6.05;;;;;;;;;;5022688;28;20042;-75
2021/01/12 03:25:27;;;;;;;46.92;7.65;;;;;;;;;;5029042;28;20088;-73
2021/01/12 03:27:53;;;;;;;26.75;5.38;;;;;;;;;;5026215;28;20057;-73
2021/01/12 03:30:19;;;;;;;44.38;5.72;;;;;;;;;;5030053;28;20033;-74
2021/01/12 03:32:45;;;;;;;36.58;6.35;;;;;;;;;;5025273;28;20021;-74
2021/01/12 03:35:12;;;;;;;51.70;8.85;;;;;;;;;;5026809;28;20028;-74
2021/01/12 03:37:38;;;;;;;39.08;6.38;;;;;;;;;;5029797;28;20061;-73
2021/01/12 03:40:07;;;;;;;28.40;6.20;;;;;;;;;;5030122;28;20022;-72
2021/01/12 03:42:34;;;;;;;25.42;5.78;;;;;;;;;;5023104;28;20029;-72
2021/01/12 03:45:00;;;;;;;34.05;6.13;;;;;;;;;;5029914;28;20105;-71
2021/01/12 03:47:26;;;;;;;30.75;5.68;;;;;;;;;;5028467;28;20037;-71
2021/01/12 03:49:52;;;;;;;31.15;5.68;;;;;;;;;;5027507;28;20183;-75
2021/01/12 03:52:18;;;;;;;55.97;6.43;;;;;;;;;;5021056;28;20100;-75
2021/01/12 03:54:44;;;;;;;42.92;6.70;;;;;;;;;;5029948;28;20520;-73
2021/01/12 03:57:10;;;;;;;50.63;6.43;;;;;;;;;;5027544;28;20460;-72
2021/01/12 03:59:37;;;;;;;45.53;6.88;;;;;;;;;;5027728;28;20025;-73
2021/01/12 04:02:03;;;;;;;34.80;6.40;;;;;;;;;;5037945;28;20297;-73
2021/01/12 04:04:30;;;;;;;35.65;6.85;;;;;;;;;;5025675;28;20025;-73
2021/01/12 04:06:56;;;;;;;36.55;7.22;;;;;;;;;;5029488;28;20057;-74
2021/01/12 04:09:22;;;;;;;48.83;5.68;;;;;;;;;;5030097;28;20061;-73
2021/01/12 04:11:48;;;;;;;56.50;8.20;;;;;;;;;;5027192;28;20095;-74
2021/01/12 04:14:15;;;;;;;37.22;5.05;;;;;;;;;;5027962;28;20026;-74
2021/01/12 04:16:42;;;;;;;36.47;5.78;;;;;;;;;;5027386;28;20026;-74
2021/01/12 04:19:08;;;;;;;35.60;7.20;;;;;;;;;;5026369;28;20632;-73
2021/01/12 04:21:34;;;;;;;43.97;7.43;;;;;;;;;;5026031;28;20064;-73
2021/01/12 04:24:00;;;;;;;29.40;5.65;;;;;;;;;;5025122;28;20140;-75
2021/01/12 04:26:26;;;;;;;36.67;6.40;;;;;;;;;;5028386;28;20032;-75
2021/01/12 04:28:52;;;;;;;27.02;6.82;;;;;;;;;;5020116;28;20449;-74
2021/01/12 04:31:18;;;;;;;45.13;6.15;;;;;;;;;;5026427;28;20030;-73
2021/01/12 04:33:44;;;;;;;46.25;6.78;;;;;;;;;;5022170;28;20478;-74
2021/01/12 04:36:10;;;;;;;63.72;8.13;;;;;;;;;;5024715;28;20025;-76
2021/01/12 04:38:36;;;;;;;49.70;7.65;;;;;;;;;;5028648;28;20021;-73
2021/01/12 04:41:02;;;;;;;40.33;6.20;;;;;;;;;;5028877;28;20037;-72
2021/01/12 04:43:28;;;;;;;21.10;4.38;;;;;;;;;;5025370;28;20025;-75
2021/01/12 04:45:54;;;;;;;38.67;5.25;;;;;;;;;;5029117;28;20032;-73
2021/01/12 04:48:20;;;;;;;24.45;4.88;;;;;;;;;;5027279;28;20064;-73
2021/01/12 04:50:46;;;;;;;53.53;8.35;;;;;;;;;;5028106;28;20026;-75
2021/01/12 04:53:12;;;;;;;38.88;5.15;;;;;;;;;;5024488;28;20053;-75
2021/01/12 04:55:42;;;;;;;43.83;6.82;;;;;;;;;;5027803;28;20071;-74
2021/01/12 04:58:08;;;;;;;43.17;7.72;;;;;;;;;;5028963;28;20032;-75
2021/01/12 05:00:37;;;;;;;57.78;7.80;;;;;;;;;;5027254;28;20390;-75
2021/01/12 05:03:06;;;;;;;55.55;7.82;;;;;;;;;;5020601;28;20009;-75
2021/01/12 05:05:35;;;;;;;39.75;5.55;;;;;;;;;;5026278;28;20037;-74
2021/01/12 05:08:06;;;;;;;42.83;6.28;;;;;;;;;;5021137;28;20057;-75
2021/01/12 05:10:37;;;;;;;41.13;6.90;;;;;;;;;;5028697;28;20045;-74
2021/01/12 05:13:03;;;;;;;;;;;;;;;;;;5020119;28;20064;-76
2021/01/12 05:15:29;;;;;;;36.53;6.05;;;;;;;;;;5027417;28;19953;-73
2021/01/12 05:17:57;;;;;;;29.05;5.43;;;;;;;;;;5027443;28;20021;-75
2021/01/12 05:20:27;;;;;;;28.02;4.20;;;;;;;;;;5028865;28;20367;-75
2021/01/12 05:23:10;;;;;;;34.15;6.22;;;;;;;;;;5019835;28;20018;-75
2021/01/12 05:25:39;;;;;;;35.40;6.75;;;;;;;;;;5027069;28;20477;-75
2021/01/12 05:28:07;;;;;;;17.70;3.90;;;;;;;;;;5027101;28;20037;-75
2021/01/12 05:30:33;;;;;;;30.33;5.13;;;;;;;;;;5026843;28;20021;-74
2021/01/12 05:32:59;;;;;;;33.92;4.90;;;;;;;;;;5026947;28;20025;-76
2021/01/12 05:35:29;;;;;;;24.55;6.32;;;;;;;;;;5031374;28;20081;-72
2021/01/12 05:37:56;;;;;;;47.40;6.53;;;;;;;;;;5029028;28;20030;-74
2021/01/12 05:40:23;;;;;;;26.60;5.40;;;;;;;;;;5033232;28;20049;-74
2021/01/12 05:42:49;;;;;;;25.60;4.78;;;;;;;;;;5027969;28;20099;-73
2021/01/12 05:45:15;;;;;;;23.60;5.05;;;;;;;;;;5031005;28;20497;-73
2021/01/12 05:47:41;;;;;;;35.80;6.03;;;;;;;;;;5031178;28;20103;-74
2021/01/12 05:50:16;;;;;;;42.53;5.95;;;;;;;;;;5028794;28;20044;-74
2021/01/12 05:52:48;;;;;;;28.05;4.97;;;;;;;;;;5025403;28;20033;-73
2021/01/12 05:55:15;;;;;;;32.50;4.75;;;;;;;;;;5030460;28;20026;-73
2021/01/12 05:57:45;;;;;;;37.80;8.07;;;;;;;;;;5027261;28;20033;-73
2021/01/12 06:00:12;;;;;;;57.35;7.82;;;;;;;;;;5026945;28;20028;-74
2021/01/12 06:02:42;;;;;;;22.70;4.70;;;;;;;;;;5025008;28;20062;-74
2021/01/12 06:05:09;;;;;;;27.33;5.57;;;;;;;;;;5026374;28;20029;-72
2021/01/12 06:07:35;;;;;;;35.67;7.45;;;;;;;;;;5030146;28;20037;-73
2021/01/12 06:10:01;;;;;;;33.65;4.80;;;;;;;;;;5029615;28;20021;-73
2021/01/12 06:12:27;;;;;;;40.15;6.20;;;;;;;;;;5025503;28;20036;-72
2021/01/12 06:14:59;;;;;;;29.85;6.93;;;;;;;;;;5024613;28;20040;-71
2021/01/12 06:17:30;;;;;;;26.90;4.22;;;;;;;;;;5029449;28;20034;-71
2021/01/12 06:20:02;;;;;;;32.35;4.38;;;;;;;;;;5030550;28;20124;-71
2021/01/12 06:22:28;;;;;;;41.28;5.10;;;;;;;;;;5025715;28;20040;-72
2021/01/12 06:25:06;;;;;;;45.75;7.00;;;;;;;;;;5029883;28;20083;-73
2021/01/12 06:27:33;;;;;;;35.38;4.47;;;;;;;;;;5026869;28;20032;-72
2021/01/12 06:30:00;;;;;;;33.58;6.13;;;;;;;;;;5023593;28;20029;-72
2021/01/12 06:32:28;;;;;;;48.33;6.57;;;;;;;;;;5032694;28;20033;-73
2021/01/12 06:34:58;;;;;;;42.35;5.50;;;;;;;;;;5031105;28;20064;-73
2021/01/12 06:37:25;;;;;;;42.45;7.25;;;;;;;;;;5038563;28;20053;-73
2021/01/12 06:39:56;;;;;;;37.33;5.40;;;;;;;;;;5028927;28;20057;-73
2021/01/12 06:42:22;;;;;;;;;;;;;;;;;;5025070;28;20017;-73
2021/01/12 06:44:52;;;;;;;41.67;6.40;;;;;;;;;;5034741;28;20340;-74
2021/01/12 06:47:23;;;;;;;45.10;7.18;;;;;;;;;;5047920;28;20037;-74
2021/01/12 06:49:49;;;;;;;38.30;5.53;;;;;;;;;;5033604;28;20064;-74
2021/01/12 06:52:16;;;;;;;41.97;4.57;;;;;;;;;;5043021;28;20256;-74
2021/01/12 06:54:42;;;;;;;25.15;4.57;;;;;;;;;;5036733;28;20033;-74
2021/01/12 06:57:09;;;;;;;24.23;3.83;;;;;;;;;;5046919;28;20044;-74
2021/01/12 06:59:51;;;;;;;30.65;4.65;;;;;;;;;;5027058;28;20017;-75
2021/01/12 07:02:30;;;;;;;24.95;4.13;;;;;;;;;;5025184;28;20553;-76
2021/01/12 07:04:57;;;;;;;26.02;4.25;;;;;;;;;;5026782;28;20026;-75
2021/01/12 07:07:24;;;;;;;28.83;4.07;;;;;;;;;;5029368;28;21445;-75
2021/01/12 07:09:53;;;;;;;38.65;4.43;;;;;;;;;;5030218;28;20038;-75
2021/01/12 07:12:20;;;;;;;26.55;3.33;;;;;;;;;;5027555;28;20029;-74
2021/01/12 07:14:46;;;;;;;29.15;4.03;;;;;;;;;;5027917;28;20017;-74
2021/01/12 07:17:13;;;;;;;32.08;5.38;;;;;;;;;;5029273;28;20087;-73
2021/01/12 07:19:39;;;;;;;32.33;4.45;;;;;;;;;;5026548;28;20021;-74
2021/01/12 07:22:16;;;;;;;26.08;4.97;;;;;;;;;;5019542;28;20728;-75
2021/01/12 07:24:43;;;;;;;39.80;4.22;;;;;;;;;;5029601;28;20425;-74
2021/01/12 07:27:12;;;;;;;30.63;4.72;;;;;;;;;;5029671;28;20029;-74
2021/01/12 07:29:48;;;;;;;27.15;3.95;;;;;;;;;;5030038;28;20456;-74
2021/01/12 07:32:24;;;;;;;38.70;5.95;;;;;;;;;;5026016;28;20111;-74
2021/01/12 07:34:50;;;;;;;40.72;4.38;;;;;;;;;;5029394;28;20099;-74
2021/01/12 07:37:16;;;;;;;44.65;4.35;;;;;;;;;;5028382;28;20041;-74
2021/01/12 07:39:42;;;;;;;28.40;5.65;;;;;;;;;;5028574;28;20048;-74
2021/01/12 07:42:08;;;;;;;30.45;3.90;;;;;;;;;;5026252;28;20407;-74
2021/01/12 07:44:34;;;;;;;26.10;4.53;;;;;;;;;;5029419;28;20026;-74
2021/01/12 07:47:00;;;;;;;28.45;4.63;;;;;;;;;;5028779;28;20021;-74
2021/01/12 07:49:26;;;;;;;18.42;3.53;;;;;;;;;;5029607;28;20049;-75
2021/01/12 07:51:53;;;;;;;27.10;4.53;;;;;;;;;;5025134;28;20036;-75
2021/01/12 07:54:23;;;;;;;34.38;6.28;;;;;;;;;;5027022;28;20022;-75
2021/01/12 07:56:51;;;;;;;34.95;4.97;;;;;;;;;;5029448;28;20124;-75
2021/01/12 07:59:17;;;;;;;22.95;4.45;;;;;;;;;;5027804;28;20556;-76
2021/01/12 08:01:43;;;;;;;31.75;5.68;;;;;;;;;;5025631;28;20120;-76
2021/01/12 08:04:13;;;;;;;27.25;6.10;;;;;;;;;;5025756;28;20025;-75
2021/01/12 08:06:42;;;;;;;28.88;6.90;;;;;;;;;;5029381;28;20052;-73
2021/01/12 08:09:09;;;;;;;19.17;5.82;;;;;;;;;;5027756;28;20052;-73
2021/01/12 08:11:36;;;;;;;24.38;7.38;;;;;;;;;;5027491;28;20087;-74
2021/01/12 08:14:08;;;;;;;23.33;6.68;;;;;;;;;;5024642;28;20041;-74
2021/01/12 08:16:35;;;;;;;32.80;6.88;;;;;;;;;;5029728;28;20429;-74
2021/01/12 08:19:01;;;;;;;29.83;6.43;;;;;;;;;;5026640;28;20104;-74
2021/01/12 08:21:27;;;;;;;33.85;6.88;;;;;;;;;;5019048;28;20021;-74
2021/01/12 08:24:00;;;;;;;23.80;5.20;;;;;;;;;;5025194;28;20079;-74
2021/01/12 08:26:27;;;;;;;30.88;4.05;;;;;;;;;;5030137;28;20076;-76
2021/01/12 08:28:53;;;;;;;28.98;4.07;;;;;;;;;;5029612;28;20030;-74
2021/01/12 08:31:19;;;;;;;28.23;5.30;;;;;;;;;;5029239;28;20394;-75
2021/01/12 08:33:46;;;;;;;34.92;4.93;;;;;;;;;;5026256;28;20068;-73
2021/01/12 08:36:16;;;;;;;39.03;5.20;;;;;;;;;;5026643;28;20032;-74
2021/01/12 08:38:42;;;;;;;38.35;4.38;;;;;;;;;;5022895;28;20022;-76
2021/01/12 08:41:09;;;;;;;28.30;4.97;;;;;;;;;;5017645;28;20037;-75
2021/01/12 08:43:36;;;;;;;26.77;4.32;;;;;;;;;;5020280;28;20567;-75
2021/01/12 08:46:03;;;;;;;28.25;3.63;;;;;;;;;;5023611;28;20021;-76
2021/01/12 08:48:29;;;;;;;44.40;4.60;;;;;;;;;;5022777;28;20513;-76
2021/01/12 08:50:56;;;;;;;34.95;4.78;;;;;;;;;;5020045;28;20037;-76
2021/01/12 08:53:28;;;;;;;35.38;4.72;;;;;;;;;;5024054;28;20494;-77
2021/01/12 08:56:05;;;;;;;36.35;5.68;;;;;;;;;;5013521;28;20498;-76
2021/01/12 08:58:31;;;;;;;29.60;3.92;;;;;;;;;;5030984;28;20029;-76
2021/01/12 09:00:59;;;;;;;25.05;3.38;;;;;;;;;;5029724;28;20033;-75
2021/01/12 09:03:26;;;;;;;41.05;4.25;;;;;;;;;;5019627;28;20017;-76
2021/01/12 09:05:53;;;;;;;39.75;5.07;;;;;;;;;;5022871;28;20033;-77
2021/01/12 09:08:21;;;;;;;32.70;3.63;;;;;;;;;;5031270;28;20025;-76
2021/01/12 09:10:47;;;;;;;21.63;3.65;;;;;;;;;;5031583;28;20095;-77
2021/01/12 09:13:14;;;;;;;30.67;3.53;;;;;;;;;;5025653;28;20029;-77
2021/01/12 09:15:41;;;;;;;27.38;2.70;;;;;;;;;;5028827;28;20518;-79
2021/01/12 09:18:07;;;;;;;23.73;2.65;;;;;;;;;;5026408;28;20413;-75
2021/01/12 09:20:34;;;;;;;23.63;3.75;;;;;;;;;;5027295;28;20064;-78
2021/01/12 09:23:07;;;;;;;19.88;2.40;;;;;;;;;;5029152;28;20032;-78
2021/01/12 09:25:33;;;;;;;19.25;2.78;;;;;;;;;;5033360;28;20026;-76
2021/01/12 09:28:15;;;;;;;19.17;2.42;;;;;;;;;;5033374;28;20401;-80
2021/01/12 09:30:41;;;;;;;;;;;;;;;;;;5033855;28;20017;-78
2021/01/12 09:33:08;;;;;;;18.65;4.07;;;;;;;;;;5029548;28;19905;-78
2021/01/12 09:35:34;;;;;;;22.45;2.92;;;;;;;;;;5030620;28;20075;-80
2021/01/12 09:38:00;;;;;;;14.50;2.05;;;;;;;;;;5032057;28;20439;-79
2021/01/12 09:40:27;;;;;;;15.25;2.10;;;;;;;;;;5033173;28;20137;-79
2021/01/12 09:42:53;;;;;;;23.02;1.98;;;;;;;;;;5029657;28;20407;-78
2021/01/12 09:45:19;;;;;;;12.07;2.08;;;;;;;;;;5033758;28;20022;-79
2021/01/12 09:47:46;;;;;;;13.40;1.40;;;;;;;;;;5031782;28;20025;-79
2021/01/12 09:50:12;;;;;;;10.55;1.20;;;;;;;;;;5027946;28;20504;-78
2021/01/12 09:52:38;;;;;;;16.38;1.80;;;;;;;;;;5027707;28;20523;-75
2021/01/12 09:55:05;;;;;;;15.93;1.98;;;;;;;;;;5028290;28;20180;-76
2021/01/12 09:57:31;;;;;;;19.20;2.53;;;;;;;;;;5030969;28;20079;-80
2021/01/12 09:59:57;;;;;;;16.13;2.40;;;;;;;;;;5030100;28;20105;-77
2021/01/12 10:02:23;;;;;;;15.85;2.03;;;;;;;;;;5021097;28;20057;-77
2021/01/12 10:04:49;;;;;;;16.90;2.13;;;;;;;;;;5029793;28;20021;-77
2021/01/12 10:07:15;;;;;;;14.05;1.95;;;;;;;;;;5031062;28;20095;-78
2021/01/12 10:09:41;;;;;;;21.00;4.10;;;;;;;;;;5029838;28;20065;-78
2021/01/12 10:12:07;;;;;;;18.77;4.78;;;;;;;;;;5029066;28;20036;-76
2021/01/12 10:14:33;;;;;;;18.13;2.53;;;;;;;;;;5030996;28;20025;-79
2021/01/12 10:16:59;;;;;;;16.35;3.05;;;;;;;;;;5045199;28;20028;-79
2021/01/12 10:19:25;;;;;;;22.85;2.10;;;;;;;;;;5030223;28;20397;-77
2021/01/12 10:21:52;;;;;;;19.33;2.80;;;;;;;;;;5029365;28;20052;-81
2021/01/12 10:24:18;;;;;;;14.98;1.63;;;;;;;;;;5030356;28;20017;-79
2021/01/12 10:26:45;;;;;;;28.40;3.00;;;;;;;;;;5031228;28;20029;-80
2021/01/12 10:29:11;;;;;;;18.02;2.83;;;;;;;;;;5029072;28;20065;-81
2021/01/12 10:31:43;;;;;;;11.35;2.03;;;;;;;;;;5031510;28;20091;-80
2021/01/12 10:34:09;;;;;;;;;;;;;;;;;;5024620;28;20030;-80
2021/01/12 10:36:35;;;;;;;20.90;3.13;;;;;;;;;;5027845;28;20385;-80
2021/01/12 10:39:01;;;;;;;20.90;4.20;;;;;;;;;;5030800;28;20017;-81
2021/01/12 10:41:27;;;;;;;18.75;2.60;;;;;;;;;;5029678;28;20230;-78
2021/01/12 10:43:55;;;;;;;24.48;3.65;;;;;;;;;;5028798;28;20112;-79
2021/01/12 10:46:21;;;;;;;25.45;2.22;;;;;;;;;;5032970;28;20025;-77
2021/01/12 10:48:49;;;;;;;24.20;2.85;;;;;;;;;;5029911;28;20037;-79
2021/01/12 10:51:19;;;;;;;17.60;2.97;;;;;;;;;;5031049;28;20025;-81
2021/01/12 10:53:45;;;;;;;20.80;2.78;;;;;;;;;;5040909;28;20053;-77
2021/01/12 10:56:18;;;;;;;19.23;3.53;;;;;;;;;;5031364;28;20033;-80
2021/01/12 10:58:44;;;;;;;16.10;4.43;;;;;;;;;;5030775;28;20151;-78
2021/01/12 11:01:14;;;;;;;22.13;3.65;;;;;;;;;;5028800;28;20025;-79
2021/01/12 11:03:40;;;;;;;20.88;3.22;;;;;;;;;;5040699;28;20513;-79
2021/01/12 11:06:07;;;;;;;22.30;2.25;;;;;;;;;;5029482;28;20025;-80
2021/01/12 11:08:33;;;;;;;23.42;3.10;;;;;;;;;;5030675;28;20025;-78
2021/01/12 11:11:01;;;;;;;12.52;2.55;;;;;;;;;;5025478;28;20021;-81
2021/01/12 11:13:27;;;;;;;12.32;2.63;;;;;;;;;;5024411;28;20033;-80
2021/01/12 11:15:56;;;;;;;22.38;5.45;;;;;;;;;;5029687;28;20402;-81
2021/01/12 11:18:23;;;;;;;17.23;2.65;;;;;;;;;;5028530;28;20036;-81
2021/01/12 11:20:49;;;;;;;13.75;2.45;;;;;;;;;;5029616;28;20037;-80
2021/01/12 11:23:15;;;;;;;17.58;2.47;;;;;;;;;;5023452;28;20049;-77
2021/01/12 11:25:42;;;;;;;21.13;2.95;;;;;;;;;;5027813;28;20025;-79
2021/01/12 11:28:08;;;;;;;20.30;2.33;;;;;;;;;;5030110;28;20033;-78
2021/01/12 11:30:34;;;;;;;26.63;3.45;;;;;;;;;;5027745;28;20470;-79
2021/01/12 11:33:00;;;;;;;13.73;2.47;;;;;;;;;;5026892;28;20079;-80
2021/01/12 11:35:27;;;;;;;11.85;1.55;;;;;;;;;;5018083;28;20029;-78
2021/01/12 11:37:53;;;;;;;20.25;1.90;;;;;;;;;;5029176;28;20025;-81
2021/01/12 11:40:19;;;;;;;21.05;2.38;;;;;;;;;;5028759;28;20520;-79
2021/01/12 11:42:45;;;;;;;17.80;2.78;;;;;;;;;;5025383;28;20018;-78
2021/01/12 11:45:12;;;;;;;20.42;3.47;;;;;;;;;;5026155;28;20029;-80
2021/01/12 11:47:38;;;;;;;24.55;3.28;;;;;;;;;;5029693;28;20057;-79
2021/01/12 11:50:08;;;;;;;29.27;3.15;;;;;;;;;;5029877;28;20083;-76
2021/01/12 11:52:35;;;;;;;23.35;2.60;;;;;;;;;;5027207;28;20041;-77
2021/01/12 11:55:01;;;;;;;15.52;2.03;;;;;;;;;;5029325;28;20025;-78
2021/01/12 11:57:28;;;;;;;20.38;3.33;;;;;;;;;;5030133;28;20029;-80
2021/01/12 11:59:54;;;;;;;10.18;2.00;;;;;;;;;;5025147;28;20033;-79
2021/01/12 12:02:20;;;;;;;19.98;2.10;;;;;;;;;;5018681;28;20037;-78
2021/01/12 12:04:46;;;;;;;18.85;2.78;;;;;;;;;;5024191;28;20026;-78
2021/01/12 12:07:12;;;;;;;15.77;2.85;;;;;;;;;;5029011;28;20056;-75
2021/01/12 12:09:38;;;;;;;19.98;2.08;;;;;;;;;;5030130;28;20112;-77
2021/01/12 12:12:04;;;;;;;20.60;2.72;;;;;;;;;;5042139;28;20029;-78
2021/01/12 12:14:30;;;;;;;12.38;1.73;;;;;;;;;;5028495;28;20029;-76
2021/01/12 12:16:57;;;;;;;18.42;2.35;;;;;;;;;;5026915;28;20061;-78
2021/01/12 12:19:23;;;;;;;17.67;3.20;;;;;;;;;;5029037;28;20516;-78
2021/01/12 12:21:50;;;;;;;15.77;2.45;;;;;;;;;;5027345;28;20029;-80
2021/01/12 12:24:16;;;;;;;17.92;2.35;;;;;;;;;;5025994;28;20036;-79
2021/01/12 12:26:43;;;;;;;14.95;1.85;;;;;;;;;;5029545;28;20039;-75
2021/01/12 12:29:09;;;;;;;12.68;2.83;;;;;;;;;;5028576;28;20033;-77
2021/01/12 12:31:36;;;;;;;14.65;2.55;;;;;;;;;;5027422;28;20079;-75
2021/01/12 12:34:02;;;;;;;17.13;2.05;;;;;;;;;;5023894;28;20013;-77
2021/01/12 12:36:28;;;;;;;8.77;2.05;;;;;;;;;;5029030;28;20116;-77
2021/01/12 12:38:54;;;;;;;12.75;1.20;;;;;;;;;;5027358;28;20160;-75
2021/01/12 12:41:20;;;;;;;8.40;1.20;;;;;;;;;;5027577;28;20120;-77
2021/01/12 12:43:47;;;;;;;7.68;1.40;;;;;;;;;;5025687;28;20033;-76
2021/01/12 12:46:14;;;;;;;13.05;2.03;;;;;;;;;;5026486;28;20465;-73
2021/01/12 12:48:40;;;;;;;15.45;2.15;;;;;;;;;;5027622;28;20036;-73
2021/01/12 12:51:07;;;;;;;15.30;1.67;;;;;;;;;;5027082;28;20409;-77
2021/01/12 12:53:35;;;;;;;10.25;1.50;;;;;;;;;;5024178;28;20029;-75
2021/01/12 12:56:02;;;;;;;12.60;1.75;;;;;;;;;;5027255;28;20029;-76
2021/01/12 12:58:29;;;;;;;8.88;1.35;;;;;;;;;;5027879;28;20029;-74
2021/01/12 13:00:56;;;;;;;15.10;1.80;;;;;;;;;;5028143;28;20014;-73
2021/01/12 13:03:22;;;;;;;16.17;2.30;;;;;;;;;;5023619;28;21653;-75
2021/01/12 13:05:48;;;;;;;13.48;1.58;;;;;;;;;;5032848;28;20026;-74
2021/01/12 13:08:15;;;;;;;13.50;2.10;;;;;;;;;;5032937;28;20049;-72
2021/01/12 13:10:41;;;;;;;18.92;1.98;;;;;;;;;;5026002;28;20048;-74
2021/01/12 13:13:07;;;;;;;20.30;2.63;;;;;;;;;;5027834;28;20977;-76
2021/01/12 13:15:33;;;;;;;20.30;4.35;;;;;;;;;;5033254;28;20037;-76
2021/01/12 13:18:00;;;;;;;21.73;2.40;;;;;;;;;;5032788;28;20100;-80
2021/01/12 13:20:27;;;;;;;12.50;1.75;;;;;;;;;;5033989;28;20050;-75
2021/01/12 13:22:54;;;;;;;9.95;1.40;;;;;;;;;;5026050;28;20030;-76
2021/01/12 13:25:23;;;;;;;10.32;1.55;;;;;;;;;;5048438;28;20514;-75
2021/01/12 13:27:51;;;;;;;15.23;2.25;;;;;;;;;;5028093;28;20026;-75
2021/01/12 13:30:17;;;;;;;7.10;1.60;;;;;;;;;;5014900;28;20038;-75
2021/01/12 13:32:48;;;;;;;12.48;1.67;;;;;;;;;;5015576;28;20057;-75
2021/01/12 13:35:16;;;;;;;9.70;1.52;;;;;;;;;;5025368;28;20029;-73
2021/01/12 13:37:42;;;;;;;12.43;1.75;;;;;;;;;;5036314;28;20069;-75
2021/01/12 13:40:09;;;;;;;12.82;1.77;;;;;;;;;;5034401;28;20021;-76
2021/01/12 13:42:35;;;;;;;15.90;3.25;;;;;;;;;;5029660;28;20025;-77
2021/01/12 13:45:02;;;;;;;17.27;2.67;;;;;;;;;;5031344;28;20033;-73
2021/01/12 13:47:28;;;;;;;20.70;2.95;;;;;;;;;;5033431;28;20025;-75
2021/01/12 13:49:55;;;;;;;9.32;1.58;;;;;;;;;;5031578;28;20022;-75
2021/01/12 13:52:22;;;;;;;12.65;1.60;;;;;;;;;;5032584;28;20029;-76
2021/01/12 13:54:49;;;;;;;21.90;2.40;;;;;;;;;;5036850;28;20033;-75
2021/01/12 13:57:26;;;;;;;21.25;1.90;;;;;;;;;;5028976;28;20060;-75
2021/01/12 13:59:54;;;;;;;8.65;1.73;;;;;;;;;;5035346;28;20025;-76
2021/01/12 14:02:20;;;;;;;11.77;2.30;;;;;;;;;;5038828;28;20317;-75
2021/01/12 14:04:46;;;;;;;15.02;1.65;;;;;;;;;;5031683;28;20068;-75
2021/01/12 14:07:13;;;;;;;15.63;2.40;;;;;;;;;;5025437;28;20053;-75
2021/01/12 14:09:39;;;;;;;16.40;3.60;;;;;;;;;;5029069;28;20032;-75
2021/01/12 14:12:06;;;;;;;13.75;2.15;;;;;;;;;;5029105;28;20034;-76
2021/01/12 14:14:32;;;;;;;12.18;1.67;;;;;;;;;;5029774;28;20116;-73
2021/01/12 14:17:02;;;;;;;21.40;2.58;;;;;;;;;;5026353;28;20475;-74
2021/01/12 14:19:28;;;;;;;16.05;2.53;;;;;;;;;;5030322;28;20045;-75
2021/01/12 14:21:58;;;;;;;12.35;1.60;;;;;;;;;;5026575;28;20510;-74
2021/01/12 14:24:24;;;;;;;15.13;2.75;;;;;;;;;;5029581;28;20025;-75
2021/01/12 14:26:50;;;;;;;17.05;1.85;;;;;;;;;;5028101;28;20025;-75
2021/01/12 14:29:17;;;;;;;18.33;2.50;;;;;;;;;;5029829;28;20061;-75
2021/01/12 14:31:43;;;;;;;15.20;1.83;;;;;;;;;;5024512;28;20038;-74